AntlersSmtRWIS Atmospheric Data: 09/14/2021 Summary  Detailed Graphs  Station List

  Temperature     Wind Precipitation Visibility
Timestamp Air Wet
Bulb
Dew-
point
24-hr
Max
24-hr
Min
Relative
Humidity
Atmospheric
Pressure
Avg
Speed
Avg
Dir
Spot
Speed
Spot
Dir
Max
Speed
Max
Dir
  Rate Situation Start End 1 hr 3 hr 6 hr 12 hr 24 hr   Situation
Date Time °F °F °F °F °F % in Hg mph ° mph ° mph ° Y/N in/hr text Date Time Date Time in in in in in mi text
09/14/2021 12:00 AM 75.02 55.40 37.76 95.90 72.50 25.0 Not Reported 1.57 N 0.22 N 3.58 N No 0.000 No Precipitation 01/01/1970 12:00 AM 01/01/1970 12:00 AM 0.000 0.000 0.000 0.000 0.000 Not Reported Not Reported
09/14/2021 12:15 AM 75.02 55.58 37.94 95.90 72.50 26.0 Not Reported 2.24 NW 2.01 NW 3.80 N No 0.000 No Precipitation 01/01/1970 12:00 AM 01/01/1970 12:00 AM 0.000 0.000 0.000 0.000 0.000 Not Reported Not Reported
09/14/2021 12:30 AM 74.66 55.40 37.94 95.90 72.50 26.0 Not Reported 3.13 N 2.01 NE 5.14 N No 0.000 No Precipitation 01/01/1970 12:00 AM 01/01/1970 12:00 AM 0.000 0.000 0.000 0.000 0.000 Not Reported Not Reported
09/14/2021 12:45 AM 75.02 55.40 37.76 95.90 72.50 25.0 Not Reported 4.92 N 5.82 N 6.26 N No 0.000 No Precipitation 01/01/1970 12:00 AM 01/01/1970 12:00 AM 0.000 0.000 0.000 0.000 0.000 Not Reported Not Reported
09/14/2021 01:00 AM 74.48 55.22 37.58 95.90 72.50 26.0 Not Reported 3.36 NW 6.04 NW 7.16 NW No 0.000 No Precipitation 01/01/1970 12:00 AM 01/01/1970 12:00 AM 0.000 0.000 0.000 0.000 0.000 Not Reported Not Reported
09/14/2021 01:15 AM 72.50 54.32 37.58 95.90 72.32 28.0 Not Reported 4.03 N 5.37 N 6.04 N No 0.000 No Precipitation 01/01/1970 12:00 AM 01/01/1970 12:00 AM 0.000 0.000 0.000 0.000 0.000 Not Reported Not Reported
09/14/2021 01:30 AM 72.32 54.14 36.86 95.90 72.14 27.0 Not Reported 3.58 N 4.92 N 4.92 NW No 0.000 No Precipitation 01/01/1970 12:00 AM 01/01/1970 12:00 AM 0.000 0.000 0.000 0.000 0.000 Not Reported Not Reported
09/14/2021 01:45 AM 72.50 54.14 36.86 95.90 72.14 27.0 Not Reported 3.80 NW 3.58 NW 5.14 NW No 0.000 No Precipitation 01/01/1970 12:00 AM 01/01/1970 12:00 AM 0.000 0.000 0.000 0.000 0.000 Not Reported Not Reported
09/14/2021 02:00 AM 72.14 53.78 36.32 95.90 71.96 27.0 Not Reported 5.14 NW 4.25 N 6.49 NW No 0.000 No Precipitation 01/01/1970 12:00 AM 01/01/1970 12:00 AM 0.000 0.000 0.000 0.000 0.000 Not Reported Not Reported
09/14/2021 02:15 AM 71.96 53.60 36.14 95.90 71.78 27.0 Not Reported 3.13 NW 4.47 N 6.49 N No 0.000 No Precipitation 01/01/1970 12:00 AM 01/01/1970 12:00 AM 0.000 0.000 0.000 0.000 0.000 Not Reported Not Reported
09/14/2021 02:30 AM 72.32 53.96 36.14 95.90 71.78 26.0 Not Reported 4.92 NW 4.47 NW 8.72 N No 0.000 No Precipitation 01/01/1970 12:00 AM 01/01/1970 12:00 AM 0.000 0.000 0.000 0.000 0.000 Not Reported Not Reported
09/14/2021 02:45 AM 71.96 53.60 36.14 95.90 71.60 26.0 Not Reported 4.03 N 5.37 NW 5.82 N No 0.000 No Precipitation 01/01/1970 12:00 AM 01/01/1970 12:00 AM 0.000 0.000 0.000 0.000 0.000 Not Reported Not Reported
09/14/2021 03:01 AM 71.78 53.60 36.32 95.90 71.60 27.0 Not Reported 2.46 NW 2.46 NW 7.16 N No 0.000 No Precipitation 01/01/1970 12:00 AM 01/01/1970 12:00 AM 0.000 0.000 0.000 0.000 0.000 Not Reported Not Reported
09/14/2021 03:15 AM 70.88 53.24 36.14 95.90 70.70 28.0 Not Reported 3.58 NW 2.46 N 5.82 N No 0.000 No Precipitation 01/01/1970 12:00 AM 01/01/1970 12:00 AM 0.000 0.000 0.000 0.000 0.000 Not Reported Not Reported
09/14/2021 03:30 AM 71.24 53.42 36.32 95.90 70.70 27.0 Not Reported 3.80 NW 4.47 NW 5.82 NW No 0.000 No Precipitation 01/01/1970 12:00 AM 01/01/1970 12:00 AM 0.000 0.000 0.000 0.000 0.000 Not Reported Not Reported
09/14/2021 03:45 AM 70.70 53.24 36.14 95.90 70.70 28.0 Not Reported 2.91 NW 4.47 N 5.37 NW No 0.000 No Precipitation 01/01/1970 12:00 AM 01/01/1970 12:00 AM 0.000 0.000 0.000 0.000 0.000 Not Reported Not Reported
09/14/2021 04:00 AM 70.88 53.24 36.32 95.90 70.70 28.0 Not Reported 3.36 NW 1.79 NE 5.59 N No 0.000 No Precipitation 01/01/1970 12:00 AM 01/01/1970 12:00 AM 0.000 0.000 0.000 0.000 0.000 Not Reported Not Reported
09/14/2021 04:15 AM 70.88 53.42 36.50 95.90 70.16 28.0 Not Reported 5.37 N 4.70 N 7.16 NW No 0.000 No Precipitation 01/01/1970 12:00 AM 01/01/1970 12:00 AM 0.000 0.000 0.000 0.000 0.000 Not Reported Not Reported
09/14/2021 04:30 AM 70.34 53.24 36.68 95.90 70.16 29.0 Not Reported 3.80 N 3.36 N 6.93 N No 0.000 No Precipitation 01/01/1970 12:00 AM 01/01/1970 12:00 AM 0.000 0.000 0.000 0.000 0.000 Not Reported Not Reported
09/14/2021 04:45 AM 69.26 52.70 36.68 95.90 69.26 30.0 Not Reported 2.46 NW 3.58 N 5.37 NW No 0.000 No Precipitation 01/01/1970 12:00 AM 01/01/1970 12:00 AM 0.000 0.000 0.000 0.000 0.000 Not Reported Not Reported
09/14/2021 05:00 AM 70.16 53.06 36.68 95.90 69.26 29.0 Not Reported 6.49 N 5.14 N 7.83 NW No 0.000 No Precipitation 01/01/1970 12:00 AM 01/01/1970 12:00 AM 0.000 0.000 0.000 0.000 0.000 Not Reported Not Reported
09/14/2021 05:15 AM 69.08 52.70 37.04 95.90 68.90 30.0 Not Reported 3.36 NW 3.80 W 7.38 N No 0.000 No Precipitation 01/01/1970 12:00 AM 01/01/1970 12:00 AM 0.000 0.000 0.000 0.000 0.000 Not Reported Not Reported
09/14/2021 05:31 AM 68.90 52.70 36.86 95.90 68.18 30.0 Not Reported 4.25 NW 4.70 NW 5.82 NW No 0.000 No Precipitation 01/01/1970 12:00 AM 01/01/1970 12:00 AM 0.000 0.000 0.000 0.000 0.000 Not Reported Not Reported
09/14/2021 05:45 AM 68.90 52.52 36.68 95.90 68.18 30.0 Not Reported 5.82 N 4.70 NW 6.26 NW No 0.000 No Precipitation 01/01/1970 12:00 AM 01/01/1970 12:00 AM 0.000 0.000 0.000 0.000 0.000 Not Reported Not Reported
09/14/2021 06:00 AM 68.54 52.52 36.68 95.90 68.18 30.0 Not Reported 6.04 NW 5.82 N 9.62 NW No 0.000 No Precipitation 01/01/1970 12:00 AM 01/01/1970 12:00 AM 0.000 0.000 0.000 0.000 0.000 Not Reported Not Reported
09/14/2021 06:15 AM 68.54 52.34 36.50 95.90 68.18 30.0 Not Reported 3.13 N 2.68 NW 7.16 N No 0.000 No Precipitation 01/01/1970 12:00 AM 01/01/1970 12:00 AM 0.000 0.000 0.000 0.000 0.000 Not Reported Not Reported
09/14/2021 06:30 AM 68.18 52.16 36.50 95.90 68.00 31.0 Not Reported 4.25 NW 2.01 NW 6.04 N No 0.000 No Precipitation 01/01/1970 12:00 AM 01/01/1970 12:00 AM 0.000 0.000 0.000 0.000 0.000 Not Reported Not Reported
09/14/2021 06:45 AM 68.00 52.34 36.50 95.90 67.64 31.0 Not Reported 2.24 N 0.67 NW 3.80 NW No 0.000 No Precipitation 01/01/1970 12:00 AM 01/01/1970 12:00 AM 0.000 0.000 0.000 0.000 0.000 Not Reported Not Reported
09/14/2021 07:00 AM 68.72 52.52 36.50 95.90 67.64 30.0 Not Reported 3.80 NW 3.80 NW 5.37 NW No 0.000 No Precipitation 01/01/1970 12:00 AM 01/01/1970 12:00 AM 0.000 0.000 0.000 0.000 0.000 Not Reported Not Reported
09/14/2021 07:15 AM 68.72 52.34 36.14 95.90 67.64 30.0 Not Reported 4.03 NW 2.46 NW 5.14 NW No 0.000 No Precipitation 01/01/1970 12:00 AM 01/01/1970 12:00 AM 0.000 0.000 0.000 0.000 0.000 Not Reported Not Reported
09/14/2021 07:31 AM 68.90 52.52 36.86 95.90 67.64 30.0 Not Reported 1.34 NW 1.12 NW 5.14 NW No 0.000 No Precipitation 01/01/1970 12:00 AM 01/01/1970 12:00 AM 0.000 0.000 0.000 0.000 0.000 Not Reported Not Reported
09/14/2021 07:45 AM 69.44 52.70 36.50 95.90 67.64 29.0 Not Reported 3.58 NW 3.80 W 5.37 N No 0.000 No Precipitation 01/01/1970 12:00 AM 01/01/1970 12:00 AM 0.000 0.000 0.000 0.000 0.000 Not Reported Not Reported
09/14/2021 08:00 AM 70.16 53.06 36.86 95.90 67.64 29.0 Not Reported 3.80 NW 3.80 NW 5.59 NW No 0.000 No Precipitation 01/01/1970 12:00 AM 01/01/1970 12:00 AM 0.000 0.000 0.000 0.000 0.000 Not Reported Not Reported
09/14/2021 08:15 AM 71.42 53.78 37.22 95.90 67.64 28.0 Not Reported 3.80 NW 3.80 NW 5.59 N No 0.000 No Precipitation 01/01/1970 12:00 AM 01/01/1970 12:00 AM 0.000 0.000 0.000 0.000 0.000 Not Reported Not Reported
09/14/2021 08:30 AM 73.58 54.50 36.32 95.90 67.64 25.0 Not Reported 3.58 NW 4.92 N 5.82 NW No 0.000 No Precipitation 01/01/1970 12:00 AM 01/01/1970 12:00 AM 0.000 0.000 0.000 0.000 0.000 Not Reported Not Reported
09/14/2021 08:45 AM 74.48 54.86 36.14 95.90 67.64 24.0 Not Reported 3.80 NW 4.70 N 6.04 NW No 0.000 No Precipitation 01/01/1970 12:00 AM 01/01/1970 12:00 AM 0.000 0.000 0.000 0.000 0.000 Not Reported Not Reported
09/14/2021 09:00 AM 76.10 55.58 36.14 95.90 67.64 23.0 Not Reported 5.37 NW 6.04 N 7.61 NW No 0.000 No Precipitation 01/01/1970 12:00 AM 01/01/1970 12:00 AM 0.000 0.000 0.000 0.000 0.000 Not Reported Not Reported
09/14/2021 09:15 AM 77.18 55.76 35.96 95.90 67.64 22.0 Not Reported 4.70 NW 1.34 NW 7.38 N No 0.000 No Precipitation 01/01/1970 12:00 AM 01/01/1970 12:00 AM 0.000 0.000 0.000 0.000 0.000 Not Reported Not Reported
09/14/2021 09:30 AM 78.62 56.48 36.14 95.90 67.64 21.0 Not Reported 4.92 N 4.70 N 5.82 N No 0.000 No Precipitation 01/01/1970 12:00 AM 01/01/1970 12:00 AM 0.000 0.000 0.000 0.000 0.000 Not Reported Not Reported
09/14/2021 09:45 AM 79.88 56.84 35.78 95.90 67.64 20.0 Not Reported 5.82 N 3.80 N 7.38 NW No 0.000 No Precipitation 01/01/1970 12:00 AM 01/01/1970 12:00 AM 0.000 0.000 0.000 0.000 0.000 Not Reported Not Reported
09/14/2021 10:00 AM 81.86 57.38 35.06 95.90 67.64 18.0 Not Reported 5.14 NW 5.82 NW 6.26 NW No 0.000 No Precipitation 01/01/1970 12:00 AM 01/01/1970 12:00 AM 0.000 0.000 0.000 0.000 0.000 Not Reported Not Reported
09/14/2021 10:15 AM 82.94 57.56 34.34 95.90 67.64 17.0 Not Reported 4.92 N 3.36 NE 5.59 NE No 0.000 No Precipitation 01/01/1970 12:00 AM 01/01/1970 12:00 AM 0.000 0.000 0.000 0.000 0.000 Not Reported Not Reported
09/14/2021 10:31 AM 85.28 58.28 33.26 95.90 67.64 15.0 Not Reported 4.70 N 5.59 NW 6.93 N No 0.000 No Precipitation 01/01/1970 12:00 AM 01/01/1970 12:00 AM 0.000 0.000 0.000 0.000 0.000 Not Reported Not Reported
09/14/2021 10:46 AM 87.44 58.82 32.00 95.90 67.64 13.0 Not Reported 5.14 NW 6.49 NW 9.40 NW No 0.000 No Precipitation 01/01/1970 12:00 AM 01/01/1970 12:00 AM 0.000 0.000 0.000 0.000 0.000 Not Reported Not Reported
09/14/2021 11:00 AM 87.62 58.28 30.56 95.90 67.64 12.0 Not Reported 6.93 N 7.83 NW 8.50 N No 0.000 No Precipitation 01/01/1970 12:00 AM 01/01/1970 12:00 AM 0.000 0.000 0.000 0.000 0.000 Not Reported Not Reported
09/14/2021 11:15 AM 88.52 58.64 30.02 95.90 67.64 12.0 Not Reported 6.49 N 7.61 N 7.61 N No 0.000 No Precipitation 01/01/1970 12:00 AM 01/01/1970 12:00 AM 0.000 0.000 0.000 0.000 0.000 Not Reported Not Reported
09/14/2021 11:30 AM 89.96 59.00 29.12 95.90 67.64 11.0 Not Reported 6.49 N 3.80 N 9.40 NW No 0.000 No Precipitation 01/01/1970 12:00 AM 01/01/1970 12:00 AM 0.000 0.000 0.000 0.000 0.000 Not Reported Not Reported
09/14/2021 11:45 AM 90.68 59.54 29.84 95.90 67.64 11.0 Not Reported 4.70 N 4.03 N 6.93 N No 0.000 No Precipitation 01/01/1970 12:00 AM 01/01/1970 12:00 AM 0.000 0.000 0.000 0.000 0.000 Not Reported Not Reported
09/14/2021 12:00 PM 90.68 59.18 28.76 95.90 67.64 10.0 Not Reported 4.25 NW 1.34 NW 9.84 NW No 0.000 No Precipitation 01/01/1970 12:00 AM 01/01/1970 12:00 AM 0.000 0.000 0.000 0.000 0.000 Not Reported Not Reported
09/14/2021 12:19 PM 92.84 60.08 28.94 95.90 67.64 10.0 Not Reported 5.14 N 6.04 N 7.83 N No 0.000 No Precipitation 01/01/1970 12:00 AM 01/01/1970 12:00 AM 0.000 0.000 0.000 0.000 0.000 Not Reported Not Reported
09/14/2021 12:30 PM 93.38 60.08 28.40 95.90 67.64 9.0 Not Reported 6.49 N 5.59 NW 8.50 N No 0.000 No Precipitation 01/01/1970 12:00 AM 01/01/1970 12:00 AM 0.000 0.000 0.000 0.000 0.000 Not Reported Not Reported
09/14/2021 12:45 PM 95.90 61.16 28.76 95.90 67.64 9.0 Not Reported 2.91 NW 3.58 N 7.16 NW No 0.000 No Precipitation 01/01/1970 12:00 AM 01/01/1970 12:00 AM 0.000 0.000 0.000 0.000 0.000 Not Reported Not Reported
09/14/2021 01:01 PM 95.90 60.98 27.50 96.44 67.64 8.0 Not Reported 4.25 N 4.47 NW 7.83 N No 0.000 No Precipitation 01/01/1970 12:00 AM 01/01/1970 12:00 AM 0.000 0.000 0.000 0.000 0.000 Not Reported Not Reported
09/14/2021 01:15 PM 97.16 61.16 26.06 97.52 67.64 7.0 Not Reported 6.04 NW 3.13 NW 7.16 NW No 0.000 No Precipitation 01/01/1970 12:00 AM 01/01/1970 12:00 AM 0.000 0.000 0.000 0.000 0.000 Not Reported Not Reported
09/14/2021 01:31 PM 95.72 60.62 26.78 97.52 67.64 8.0 Not Reported 5.14 N 3.36 NW 7.61 N No 0.000 No Precipitation 01/01/1970 12:00 AM 01/01/1970 12:00 AM 0.000 0.000 0.000 0.000 0.000 Not Reported Not Reported
09/14/2021 01:45 PM 97.16 60.98 25.52 97.52 67.64 7.0 Not Reported 2.24 NE 0.89 SE 8.28 N No 0.000 No Precipitation 01/01/1970 12:00 AM 01/01/1970 12:00 AM 0.000 0.000 0.000 0.000 0.000 Not Reported Not Reported
09/14/2021 02:00 PM 98.06 60.98 24.08 98.78 67.64 7.0 Not Reported 4.03 S 2.68 N 5.82 SE No 0.000 No Precipitation 01/01/1970 12:00 AM 01/01/1970 12:00 AM 0.000 0.000 0.000 0.000 0.000 Not Reported Not Reported
09/14/2021 02:15 PM 98.24 60.62 20.66 98.78 67.64 6.0 Not Reported 4.25 SE 4.92 E 7.38 SE No 0.000 No Precipitation 01/01/1970 12:00 AM 01/01/1970 12:00 AM 0.000 0.000 0.000 0.000 0.000 Not Reported Not Reported
09/14/2021 02:45 PM 97.70 60.08 19.40 99.14 67.64 5.0 Not Reported 6.93 SE 3.36 SE 8.28 SE No 0.000 No Precipitation 01/01/1970 12:00 AM 01/01/1970 12:00 AM 0.000 0.000 0.000 0.000 0.000 Not Reported Not Reported
09/14/2021 03:00 PM 97.70 60.08 19.22 99.14 67.64 5.0 Not Reported 6.26 SE 4.47 S 9.40 SE No 0.000 No Precipitation 01/01/1970 12:00 AM 01/01/1970 12:00 AM 0.000 0.000 0.000 0.000 0.000 Not Reported Not Reported
09/14/2021 03:15 PM 100.22 60.44 15.26 100.22 67.64 4.0 Not Reported 0.67 NW 2.01 NW 3.13 NE No 0.000 No Precipitation 01/01/1970 12:00 AM 01/01/1970 12:00 AM 0.000 0.000 0.000 0.000 0.000 Not Reported Not Reported
09/14/2021 03:30 PM 100.04 60.80 17.24 100.76 67.64 4.0 Not Reported 2.46 NW 2.68 NW 4.47 N No 0.000 No Precipitation 01/01/1970 12:00 AM 01/01/1970 12:00 AM 0.000 0.000 0.000 0.000 0.000 Not Reported Not Reported
09/14/2021 03:45 PM 99.86 61.34 21.74 100.76 67.64 6.0 Not Reported 2.46 S 1.79 W 4.92 SE No 0.000 No Precipitation 01/01/1970 12:00 AM 01/01/1970 12:00 AM 0.000 0.000 0.000 0.000 0.000 Not Reported Not Reported
09/14/2021 04:00 PM 98.42 60.80 22.10 100.76 67.64 6.0 Not Reported 2.46 SE 0.45 N 4.70 SE No 0.000 No Precipitation 01/01/1970 12:00 AM 01/01/1970 12:00 AM 0.000 0.000 0.000 0.000 0.000 Not Reported Not Reported
09/14/2021 04:15 PM 99.86 61.70 23.90 100.76 67.64 6.0 Not Reported 2.01 S 3.58 E 6.71 SE No 0.000 No Precipitation 01/01/1970 12:00 AM 01/01/1970 12:00 AM 0.000 0.000 0.000 0.000 0.000 Not Reported Not Reported
09/14/2021 04:30 PM 98.96 61.34 23.36 100.76 67.64 6.0 Not Reported 2.46 S 7.61 E 7.61 E No 0.000 No Precipitation 01/01/1970 12:00 AM 01/01/1970 12:00 AM 0.000 0.000 0.000 0.000 0.000 Not Reported Not Reported
09/14/2021 04:45 PM 97.52 60.80 23.36 100.76 67.64 6.0 Not Reported 3.58 SE 4.47 SE 6.26 SE No 0.000 No Precipitation 01/01/1970 12:00 AM 01/01/1970 12:00 AM 0.000 0.000 0.000 0.000 0.000 Not Reported Not Reported
09/14/2021 05:00 PM 97.34 60.62 23.36 100.76 67.64 7.0 Not Reported 1.57 SE 1.12 SE 4.03 W No 0.000 No Precipitation 01/01/1970 12:00 AM 01/01/1970 12:00 AM 0.000 0.000 0.000 0.000 0.000 Not Reported Not Reported
09/14/2021 05:15 PM 97.34 60.80 23.72 100.76 67.64 7.0 Not Reported 2.01 SE 2.01 SE 3.80 SE No 0.000 No Precipitation 01/01/1970 12:00 AM 01/01/1970 12:00 AM 0.000 0.000 0.000 0.000 0.000 Not Reported Not Reported
09/14/2021 05:30 PM 96.80 60.80 25.88 100.76 67.64 7.0 Not Reported 1.79 W 1.34 SE 4.92 E No 0.000 No Precipitation 01/01/1970 12:00 AM 01/01/1970 12:00 AM 0.000 0.000 0.000 0.000 0.000 Not Reported Not Reported
09/14/2021 05:45 PM 96.62 60.80 25.16 100.76 67.64 7.0 Not Reported 2.01 SE 3.58 SE 3.58 SE No 0.000 No Precipitation 01/01/1970 12:00 AM 01/01/1970 12:00 AM 0.000 0.000 0.000 0.000 0.000 Not Reported Not Reported
09/14/2021 06:00 PM 95.18 60.80 28.76 100.76 67.64 9.0 Not Reported 2.01 S 1.79 E 3.36 S No 0.000 No Precipitation 01/01/1970 12:00 AM 01/01/1970 12:00 AM 0.000 0.000 0.000 0.000 0.000 Not Reported Not Reported
09/14/2021 06:15 PM 92.84 60.62 31.46 100.76 67.64 11.0 Not Reported 1.12 SE 1.34 SE 2.91 SE No 0.000 No Precipitation 01/01/1970 12:00 AM 01/01/1970 12:00 AM 0.000 0.000 0.000 0.000 0.000 Not Reported Not Reported
09/14/2021 06:30 PM 89.78 59.18 30.56 100.76 67.64 12.0 Not Reported 0.45 S 0.45 S 1.34 S No 0.000 No Precipitation 01/01/1970 12:00 AM 01/01/1970 12:00 AM 0.000 0.000 0.000 0.000 0.000 Not Reported Not Reported
09/14/2021 06:45 PM 88.16 58.46 29.48 100.76 67.64 12.0 Not Reported 1.57 SE 1.79 E 1.79 SE No 0.000 No Precipitation 01/01/1970 12:00 AM 01/01/1970 12:00 AM 0.000 0.000 0.000 0.000 0.000 Not Reported Not Reported
09/14/2021 07:00 PM 86.72 57.74 29.12 100.76 67.64 12.0 Not Reported 0.22 SE 0.89 SE 1.34 SE No 0.000 No Precipitation 01/01/1970 12:00 AM 01/01/1970 12:00 AM 0.000 0.000 0.000 0.000 0.000 Not Reported Not Reported
09/14/2021 07:15 PM 84.92 57.02 28.94 100.76 67.64 13.0 Not Reported 1.34 SE 2.46 SE 2.68 SE No 0.000 No Precipitation 01/01/1970 12:00 AM 01/01/1970 12:00 AM 0.000 0.000 0.000 0.000 0.000 Not Reported Not Reported
09/14/2021 07:31 PM 84.20 56.66 28.94 100.76 67.64 13.0 Not Reported 0.67 E 0.45 SE 2.01 SE No 0.000 No Precipitation 01/01/1970 12:00 AM 01/01/1970 12:00 AM 0.000 0.000 0.000 0.000 0.000 Not Reported Not Reported
09/14/2021 07:45 PM 82.76 56.48 30.56 100.76 67.64 15.0 Not Reported 1.12 E 0.67 SE 1.12 SE No 0.000 No Precipitation 01/01/1970 12:00 AM 01/01/1970 12:00 AM 0.000 0.000 0.000 0.000 0.000 Not Reported Not Reported
09/14/2021 08:00 PM 81.50 56.66 32.72 100.76 67.64 17.0 Not Reported 0.00 S 0.00 S 1.34 SE No 0.000 No Precipitation 01/01/1970 12:00 AM 01/01/1970 12:00 AM 0.000 0.000 0.000 0.000 0.000 Not Reported Not Reported
09/14/2021 08:15 PM 80.42 56.12 32.54 100.76 67.64 17.0 Not Reported 0.45 E 0.45 SE 2.24 N No 0.000 No Precipitation 01/01/1970 12:00 AM 01/01/1970 12:00 AM 0.000 0.000 0.000 0.000 0.000 Not Reported Not Reported
09/14/2021 08:31 PM 80.60 56.30 33.08 100.76 67.64 17.0 Not Reported 0.00 SE 0.22 SE 1.57 SE No 0.000 No Precipitation 01/01/1970 12:00 AM 01/01/1970 12:00 AM 0.000 0.000 0.000 0.000 0.000 Not Reported Not Reported
09/14/2021 08:45 PM 79.52 55.94 32.90 100.76 67.64 18.0 Not Reported 0.22 E 0.22 E 0.45 E No 0.000 No Precipitation 01/01/1970 12:00 AM 01/01/1970 12:00 AM 0.000 0.000 0.000 0.000 0.000 Not Reported Not Reported
09/14/2021 09:00 PM 80.78 56.66 33.80 100.76 67.64 18.0 Not Reported 1.57 N 2.24 NW 3.13 N No 0.000 No Precipitation 01/01/1970 12:00 AM 01/01/1970 12:00 AM 0.000 0.000 0.000 0.000 0.000 Not Reported Not Reported
09/14/2021 09:15 PM 79.52 56.30 34.16 100.76 67.64 19.0 Not Reported 1.12 E 1.34 E 1.34 E No 0.000 No Precipitation 01/01/1970 12:00 AM 01/01/1970 12:00 AM 0.000 0.000 0.000 0.000 0.000 Not Reported Not Reported
09/14/2021 09:30 PM 78.62 55.94 34.34 100.76 67.64 20.0 Not Reported 1.79 SE 0.89 E 2.24 SE No 0.000 No Precipitation 01/01/1970 12:00 AM 01/01/1970 12:00 AM 0.000 0.000 0.000 0.000 0.000 Not Reported Not Reported
09/14/2021 09:45 PM 77.18 55.58 35.24 100.76 67.64 21.0 Not Reported 0.67 S 1.12 S 1.12 S No 0.000 No Precipitation 01/01/1970 12:00 AM 01/01/1970 12:00 AM 0.000 0.000 0.000 0.000 0.000 Not Reported Not Reported
09/14/2021 10:01 PM 76.46 55.40 35.60 100.76 67.64 22.0 Not Reported 0.00 N 0.00 NE 0.89 NE No 0.000 No Precipitation 01/01/1970 12:00 AM 01/01/1970 12:00 AM 0.000 0.000 0.000 0.000 0.000 Not Reported Not Reported
09/14/2021 10:15 PM 75.92 55.94 37.76 100.76 67.64 25.0 Not Reported 0.45 E 0.00 E 1.34 N No 0.000 No Precipitation 01/01/1970 12:00 AM 01/01/1970 12:00 AM 0.000 0.000 0.000 0.000 0.000 Not Reported Not Reported
09/14/2021 10:30 PM 75.20 55.22 36.68 100.76 67.64 24.0 Not Reported 0.45 SE 1.12 SE 1.57 N No 0.000 No Precipitation 01/01/1970 12:00 AM 01/01/1970 12:00 AM 0.000 0.000 0.000 0.000 0.000 Not Reported Not Reported
09/14/2021 10:45 PM 73.94 54.50 35.96 100.76 67.64 25.0 Not Reported 0.89 E 0.00 E 1.79 NE No 0.000 No Precipitation 01/01/1970 12:00 AM 01/01/1970 12:00 AM 0.000 0.000 0.000 0.000 0.000 Not Reported Not Reported
09/14/2021 11:00 PM 73.40 54.32 35.96 100.76 67.64 25.0 Not Reported 0.00 N 0.00 N 1.12 N No 0.000 No Precipitation 01/01/1970 12:00 AM 01/01/1970 12:00 AM 0.000 0.000 0.000 0.000 0.000 Not Reported Not Reported
09/14/2021 11:15 PM 72.68 53.96 36.14 100.76 67.64 26.0 Not Reported 0.00 N 0.00 SE 1.34 N No 0.000 No Precipitation 01/01/1970 12:00 AM 01/01/1970 12:00 AM 0.000 0.000 0.000 0.000 0.000 Not Reported Not Reported
09/14/2021 11:30 PM 72.14 53.78 36.32 100.76 67.64 26.0 Not Reported 0.00 E 1.79 NW 1.79 NW No 0.000 No Precipitation 01/01/1970 12:00 AM 01/01/1970 12:00 AM 0.000 0.000 0.000 0.000 0.000 Not Reported Not Reported
09/14/2021 11:45 PM 73.04 54.32 36.68 100.76 67.64 26.0 Not Reported 3.80 N 4.25 N 5.14 N No 0.000 No Precipitation 01/01/1970 12:00 AM 01/01/1970 12:00 AM 0.000 0.000 0.000 0.000 0.000 Not Reported Not Reported